To NAV CANADA Home Page Login to a new session Search on AWWS site Disclaimer Vers la page française équivalente Tips FAQ What's new on the site To the Forecasts and Observations / NOTAM section To "File a Flight Plan" website Publications and other links Update of the User's profile FIC Telephone Numbers My Weather Data Folder Route Weather Data Regional Weather Data Local Weather Data To the Forecasts and Observations / NOTAM section
Request Generated 01/21/2021 at 00:47:38 UTC . Weather information available at that time is displayed.

METAR/TAF

TOFINO/LONG BEACH/BC    

METAR CYAZ 210000Z 00000KT 15SM FEW015 BKN042 OVC110 07/05 A3011 RMK CF1SC5AC2 SLP200=
METAR CYAZ 202300Z 29003KT 240V320 15SM FEW015 BKN031 OVC042 08/05 A3012 RMK CF2SC3SC3 SLP202=
METAR CYAZ 202200Z VRB02KT 15SM FEW030 BKN042 OVC120 07/06 A3014 RMK CF2SC4AC2 SLP207=

TAF CYAZ 201838Z 2019/2101 VRB03KT P6SM BKN030 OVC120
RMK NXT FCST WILL BE ISSUED AT 211645Z=
Your time UTC time
Weather data provided by Environment Canada and NAV CANADA